Time;durP1;ratioP1;P1;durP2;ratioP2;P2;SDS_P1;SDS_P2;PMS_P1;PMS_P2;Temp;Humidity;BMP_temperature;BMP_pressure;BME280_temperature;BME280_humidity;BME280_pressure;Samples;Min_cycle;Max_cycle;Signal;HPM_P1;HPM_P2
2022/05/08 00:00:06;;;;;;;17.67;3.33;;;9.10;99.90;;;;;;5036398;28;20087;-70
2022/05/08 00:02:31;;;;;;;11.60;3.50;;;9.10;99.90;;;;;;5052821;28;20519;-70
2022/05/08 00:04:57;;;;;;;12.70;4.20;;;9.20;99.90;;;;;;5035864;28;20044;-70
2022/05/08 00:07:23;;;;;;;16.45;3.20;;;9.20;99.90;;;;;;5052780;28;20131;-70
2022/05/08 00:09:49;;;;;;;14.40;3.83;;;9.10;99.90;;;;;;5035585;28;20075;-71
2022/05/08 00:12:16;;;;;;;14.68;3.20;;;9.10;99.90;;;;;;5036395;28;20115;-71
2022/05/08 00:14:43;;;;;;;13.27;3.97;;;9.00;99.90;;;;;;5052475;28;20053;-70
2022/05/08 00:17:13;;;;;;;13.18;3.10;;;8.90;99.90;;;;;;5052626;28;20041;-70
2022/05/08 00:19:44;;;;;;;12.00;3.33;;;8.90;99.90;;;;;;5052844;28;20041;-70
2022/05/08 00:22:11;;;;;;;12.43;3.50;;;8.80;99.90;;;;;;5035982;28;20052;-70
2022/05/08 00:24:38;;;;;;;14.63;3.75;;;8.80;99.90;;;;;;5035268;28;20560;-71
2022/05/08 00:27:04;;;;;;;17.58;3.63;;;8.70;99.90;;;;;;5035873;28;20041;-70
2022/05/08 00:29:29;;;;;;;10.95;3.03;;;8.80;99.90;;;;;;5052475;28;20051;-71
2022/05/08 00:31:55;;;;;;;12.48;3.03;;;8.70;99.90;;;;;;5052657;28;20041;-71
2022/05/08 00:34:21;;;;;;;12.27;3.35;;;8.80;99.90;;;;;;5050397;28;20053;-70
2022/05/08 00:36:46;;;;;;;14.23;4.10;;;8.70;99.90;;;;;;5052318;28;20045;-71
2022/05/08 00:39:13;;;;;;;13.15;3.30;;;8.70;99.90;;;;;;5035676;28;20045;-70
2022/05/08 00:41:39;;;;;;;11.57;3.30;;;8.60;99.90;;;;;;5035653;28;20075;-70
2022/05/08 00:44:05;;;;;;;11.80;2.95;;;8.60;99.90;;;;;;5034890;28;20409;-70
2022/05/08 00:46:30;;;;;;;15.15;3.78;;;8.60;99.90;;;;;;5031384;28;20045;-70
2022/05/08 00:48:57;;;;;;;13.00;3.30;;;8.40;99.90;;;;;;5032186;28;20128;-70
2022/05/08 00:51:24;;;;;;;12.48;3.28;;;8.50;99.90;;;;;;5047536;28;20041;-70
2022/05/08 00:53:51;;;;;;;12.07;4.30;;;8.40;99.90;;;;;;5068780;28;20041;-70
2022/05/08 00:56:19;;;;;;;12.52;3.10;;;8.50;99.90;;;;;;5051945;28;20083;-70
2022/05/08 00:58:48;;;;;;;15.63;3.22;;;8.40;99.90;;;;;;5051270;28;20025;-71
2022/05/08 01:01:14;;;;;;;12.48;3.25;;;8.40;99.90;;;;;;5035491;28;20098;-70
2022/05/08 01:03:41;;;;;;;14.15;3.42;;;8.30;99.90;;;;;;5050308;28;20075;-71
2022/05/08 01:06:11;;;;;;;11.77;3.22;;;8.30;99.90;;;;;;5052124;28;20522;-71
2022/05/08 01:08:39;;;;;;;12.35;3.53;;;8.20;99.90;;;;;;5051038;28;20066;-70
2022/05/08 01:11:06;;;;;;;13.35;3.88;;;8.20;99.90;;;;;;5052159;28;20127;-71
2022/05/08 01:13:32;;;;;;;16.42;3.40;;;8.20;99.90;;;;;;5051551;28;20037;-70
2022/05/08 01:15:58;;;;;;;13.48;3.45;;;8.10;99.90;;;;;;5050793;28;20052;-70
2022/05/08 01:18:24;;;;;;;9.90;2.85;;;8.10;99.90;;;;;;5068706;28;20060;-70
2022/05/08 01:20:50;;;;;;;13.57;3.17;;;8.10;99.90;;;;;;5051679;28;20079;-70
2022/05/08 01:23:16;;;;;;;12.15;3.58;;;8.00;99.90;;;;;;5050921;28;20075;-70
2022/05/08 01:25:51;;;;;;;14.70;3.22;;;8.00;99.90;;;;;;5051798;28;20041;-70
2022/05/08 01:28:17;;;;;;;14.27;3.35;;;8.10;99.90;;;;;;5051741;28;20033;-70
2022/05/08 01:30:44;;;;;;;12.50;2.92;;;8.10;99.90;;;;;;5051994;28;20489;-71
2022/05/08 01:33:10;;;;;;;13.43;3.20;;;8.10;99.90;;;;;;5050961;28;20400;-71
2022/05/08 01:35:36;;;;;;;13.45;3.05;;;8.00;99.90;;;;;;5051509;28;20060;-71
2022/05/08 01:38:06;;;;;;;14.38;3.30;;;8.00;99.90;;;;;;5050943;28;20052;-70
2022/05/08 01:40:32;;;;;;;11.52;3.42;;;8.00;99.90;;;;;;5051655;28;20048;-71
2022/05/08 01:42:58;;;;;;;12.57;3.00;;;7.90;99.90;;;;;;5050624;28;20055;-70
2022/05/08 01:45:24;;;;;;;14.55;3.10;;;7.90;99.90;;;;;;5051379;28;20489;-70
2022/05/08 01:50:36;;;;;;;9.45;2.85;;;7.80;99.90;;;;;;5031645;28;20049;-71
2022/05/08 01:53:02;;;;;;;13.60;3.08;;;7.80;99.90;;;;;;5052460;28;20037;-70
2022/05/08 01:55:27;;;;;;;12.18;3.15;;;7.90;99.90;;;;;;5068359;28;20033;-70
2022/05/08 01:57:53;;;;;;;10.18;2.92;;;7.80;99.90;;;;;;5035079;28;20090;-70
2022/05/08 02:00:20;;;;;;;12.52;3.10;;;7.80;99.90;;;;;;5051413;28;20045;-70
2022/05/08 02:02:48;;;;;;;11.25;3.42;;;7.70;99.90;;;;;;5034207;28;22036;-70
2022/05/08 02:05:20;;;;;;;12.48;2.92;;;7.70;99.90;;;;;;5035088;28;20037;-70
2022/05/08 02:07:46;;;;;;;;;;;7.60;99.90;;;;;;5035496;28;20045;-70
2022/05/08 02:10:13;;;;;;;10.38;2.72;;;7.60;99.90;;;;;;5050511;28;19916;-70
2022/05/08 02:12:39;;;;;;;9.63;2.78;;;7.70;99.90;;;;;;5051285;28;20041;-71
2022/05/08 02:15:08;;;;;;;9.68;3.08;;;7.60;99.90;;;;;;5051399;28;20067;-71
2022/05/08 02:17:34;;;;;;;10.70;3.05;;;7.60;99.90;;;;;;5071561;28;20037;-70
2022/05/08 02:20:00;;;;;;;11.23;2.70;;;7.60;99.90;;;;;;5052626;28;20033;-70
2022/05/08 02:22:26;;;;;;;9.93;2.72;;;7.60;99.90;;;;;;5038627;28;20115;-71
2022/05/08 02:24:52;;;;;;;7.68;2.38;;;7.50;99.90;;;;;;5036384;28;20148;-70
2022/05/08 02:27:17;;;;;;;9.93;2.40;;;7.50;99.90;;;;;;5054631;28;20044;-70
2022/05/08 02:29:48;;;;;;;7.32;2.40;;;7.40;99.90;;;;;;5052312;28;20370;-70
2022/05/08 02:32:14;;;;;;;8.55;2.40;;;7.40;99.90;;;;;;5048958;28;20037;-70
2022/05/08 02:34:40;;;;;;;10.30;2.15;;;7.40;99.90;;;;;;5046653;28;20056;-71
2022/05/08 02:37:05;;;;;;;11.23;2.90;;;7.60;99.90;;;;;;5034043;28;20032;-70
2022/05/08 02:39:31;;;;;;;6.60;2.40;;;7.40;99.90;;;;;;5043059;28;20036;-71
2022/05/08 02:41:56;;;;;;;7.95;2.53;;;7.40;99.90;;;;;;5057864;28;20072;-71
2022/05/08 02:44:22;;;;;;;10.02;2.25;;;7.40;99.90;;;;;;5060888;28;20090;-71
2022/05/08 02:46:47;;;;;;;10.07;2.20;;;7.40;99.90;;;;;;5053779;28;20040;-70
2022/05/08 02:49:13;;;;;;;7.00;2.42;;;7.40;99.90;;;;;;5052313;28;20047;-70
2022/05/08 02:51:38;;;;;;;9.88;2.40;;;7.30;99.90;;;;;;5037258;28;20511;-70
2022/05/08 02:54:04;;;;;;;7.03;2.20;;;7.20;99.90;;;;;;5035013;28;20048;-70
2022/05/08 02:59:15;;;;;;;12.48;2.60;;;7.10;99.90;;;;;;5039112;28;20394;-71
2022/05/08 03:01:41;;;;;;;9.20;2.28;;;7.00;99.90;;;;;;5051986;28;20068;-70
2022/05/08 03:04:06;;;;;;;9.55;2.80;;;6.90;99.90;;;;;;5052474;28;20069;-70
2022/05/08 03:06:32;;;;;;;8.45;2.60;;;6.90;99.90;;;;;;5053327;28;20032;-70
2022/05/08 03:08:58;;;;;;;9.38;2.60;;;6.80;99.90;;;;;;5035907;28;20029;-70
2022/05/08 03:11:26;;;;;;;7.10;2.15;;;6.90;99.90;;;;;;5053905;28;20048;-70
2022/05/08 03:13:54;;;;;;;5.53;1.90;;;6.80;99.90;;;;;;5052313;28;20145;-70
2022/05/08 03:16:19;;;;;;;8.48;2.00;;;6.80;99.90;;;;;;5036542;28;20036;-70
2022/05/08 03:18:45;;;;;;;8.07;2.50;;;6.80;99.90;;;;;;5052941;28;20554;-70
2022/05/08 03:21:13;;;;;;;6.97;2.50;;;6.80;99.90;;;;;;5050833;28;20397;-70
2022/05/08 03:23:40;;;;;;;8.70;2.45;;;6.70;99.90;;;;;;5034931;28;20068;-70
2022/05/08 03:26:07;;;;;;;7.05;1.88;;;6.80;99.90;;;;;;5051493;28;20033;-70
2022/05/08 03:28:34;;;;;;;4.78;1.70;;;6.80;99.90;;;;;;5035295;28;20091;-70
2022/05/08 03:31:00;;;;;;;5.53;2.00;;;6.80;99.90;;;;;;5048964;28;20129;-70
2022/05/08 03:33:27;;;;;;;5.47;1.70;;;6.70;99.90;;;;;;5053809;28;20091;-71
2022/05/08 03:35:52;;;;;;;7.00;2.05;;;6.60;99.90;;;;;;5056609;28;20053;-70
2022/05/08 03:38:18;;;;;;;4.35;1.17;;;6.70;99.90;;;;;;5064844;28;20089;-71
2022/05/08 03:40:44;;;;;;;4.53;1.30;;;6.60;99.90;;;;;;5052598;28;20397;-70
2022/05/08 03:43:10;;;;;;;4.20;1.20;;;6.60;99.90;;;;;;5034760;28;20485;-71
2022/05/08 03:45:35;;;;;;;3.00;1.20;;;6.50;99.90;;;;;;5036905;28;20393;-71
2022/05/08 03:48:01;;;;;;;2.40;1.30;;;6.50;99.90;;;;;;5052568;28;20041;-70
2022/05/08 03:50:28;;;;;;;5.03;1.20;;;6.40;99.90;;;;;;5052200;28;20110;-70
2022/05/08 03:52:54;;;;;;;4.32;1.40;;;6.40;99.90;;;;;;5052090;28;20046;-71
2022/05/08 03:55:19;;;;;;;3.45;1.10;;;6.40;99.90;;;;;;5051414;28;20563;-70
2022/05/08 03:57:45;;;;;;;1.58;0.80;;;6.40;99.90;;;;;;5053086;28;20044;-70
2022/05/08 04:00:12;;;;;;;2.10;0.90;;;6.50;99.90;;;;;;5034911;28;20045;-70
2022/05/08 04:02:38;;;;;;;6.35;1.40;;;6.50;99.90;;;;;;5050794;28;20558;-70
2022/05/08 04:05:05;;;;;;;3.00;1.15;;;6.40;99.90;;;;;;5050211;28;20033;-70
2022/05/08 04:07:31;;;;;;;4.30;1.38;;;6.30;99.90;;;;;;5052092;28;20036;-70
2022/05/08 04:09:58;;;;;;;3.92;1.38;;;6.30;99.90;;;;;;5052044;28;20488;-70
2022/05/08 04:12:24;;;;;;;4.57;1.65;;;6.20;99.90;;;;;;5052826;28;20029;-70
2022/05/08 04:14:49;;;;;;;3.17;1.38;;;6.20;99.90;;;;;;5035273;28;20508;-70
2022/05/08 04:17:16;;;;;;;3.28;1.40;;;6.20;99.90;;;;;;5051819;28;20083;-71
2022/05/08 04:19:42;;;;;;;3.47;1.20;;;6.20;99.90;;;;;;5051877;28;20044;-71
2022/05/08 04:24:53;;;;;;;3.17;1.00;;;6.30;99.90;;;;;;5051790;28;20057;-70
2022/05/08 04:27:19;;;;;;;2.47;1.10;;;6.30;99.90;;;;;;5051678;28;20400;-70
2022/05/08 04:29:44;;;;;;;3.53;1.10;;;6.30;99.90;;;;;;5051131;28;20033;-70
2022/05/08 04:32:10;;;;;;;3.78;1.70;;;6.30;99.90;;;;;;5051781;28;20037;-70
2022/05/08 04:34:36;;;;;;;4.03;1.80;;;6.30;99.90;;;;;;5050901;28;20490;-71
2022/05/08 04:37:03;;;;;;;5.13;1.75;;;6.30;99.90;;;;;;5064655;28;20037;-70
2022/05/08 04:39:28;;;;;;;7.53;1.95;;;6.40;99.90;;;;;;5034630;28;20075;-70
2022/05/08 04:41:54;;;;;;;3.58;1.90;;;6.40;99.90;;;;;;5068870;28;20413;-70
2022/05/08 04:44:19;;;;;;;4.18;1.70;;;6.30;99.90;;;;;;5051056;28;20033;-70
2022/05/08 04:46:45;;;;;;;4.30;1.90;;;6.40;99.90;;;;;;5067988;28;20029;-70
2022/05/08 04:49:11;;;;;;;7.43;1.83;;;6.40;99.90;;;;;;5051010;28;20037;-70
2022/05/08 04:51:36;;;;;;;5.00;1.95;;;6.40;99.90;;;;;;5050776;28;20428;-70
2022/05/08 04:54:02;;;;;;;4.22;1.58;;;6.40;99.90;;;;;;5051286;28;20493;-70
2022/05/08 04:56:29;;;;;;;4.65;1.92;;;6.40;99.90;;;;;;5035073;28;20409;-70
2022/05/08 04:58:55;;;;;;;5.70;2.10;;;6.40;99.90;;;;;;5051467;28;20075;-70
2022/05/08 05:01:21;;;;;;;5.63;1.88;;;6.50;99.90;;;;;;5050232;28;20424;-70
2022/05/08 05:03:48;;;;;;;5.65;2.17;;;6.50;99.90;;;;;;5034597;28;20048;-70
2022/05/08 05:06:14;;;;;;;7.57;2.47;;;6.50;99.90;;;;;;5050307;28;20523;-70
2022/05/08 05:08:39;;;;;;;5.10;2.30;;;6.50;99.90;;;;;;5050872;28;20065;-70
2022/05/08 05:11:08;;;;;;;7.63;2.50;;;6.50;99.90;;;;;;5050903;28;20059;-71
2022/05/08 05:13:35;;;;;;;7.15;2.33;;;6.50;99.90;;;;;;5051492;28;20114;-70
2022/05/08 05:16:01;;;;;;;8.77;2.58;;;6.50;99.90;;;;;;5051156;28;20052;-70
2022/05/08 05:18:26;;;;;;;8.32;2.67;;;6.50;99.90;;;;;;5050968;28;20053;-70
2022/05/08 05:20:52;;;;;;;10.77;3.20;;;6.60;99.90;;;;;;5033840;28;20053;-71
2022/05/08 05:23:17;;;;;;;7.35;2.67;;;6.70;99.90;;;;;;5051930;28;20047;-70
2022/05/08 05:25:43;;;;;;;9.27;2.78;;;6.70;99.90;;;;;;5050002;28;20037;-70
2022/05/08 05:28:08;;;;;;;8.02;2.67;;;6.80;99.90;;;;;;5051773;28;20036;-70
2022/05/08 05:30:34;;;;;;;7.10;3.40;;;6.90;99.90;;;;;;5034146;28;20039;-70
2022/05/08 05:33:00;;;;;;;6.75;2.50;;;7.00;99.90;;;;;;5051053;28;20436;-70
2022/05/08 05:35:25;;;;;;;10.38;2.90;;;7.10;99.90;;;;;;5033352;28;20095;-70
2022/05/08 05:37:51;;;;;;;7.15;2.72;;;7.20;99.90;;;;;;5050100;28;20072;-70
2022/05/08 05:40:17;;;;;;;9.43;3.05;;;7.30;99.90;;;;;;5033744;28;20076;-69
2022/05/08 05:42:42;;;;;;;11.70;2.72;;;7.40;99.90;;;;;;5048698;28;20063;-70
2022/05/08 05:45:08;;;;;;;8.82;2.72;;;7.40;99.90;;;;;;5067820;28;20041;-70
2022/05/08 05:47:53;;;;;;;8.50;2.45;;;7.50;99.90;;;;;;5051681;28;20045;-70
2022/05/08 05:50:28;;;;;;;9.15;2.70;;;7.60;99.90;;;;;;5021292;28;20082;-70
2022/05/08 05:52:53;;;;;;;9.15;2.42;;;7.70;99.90;;;;;;5054285;28;20460;-70
2022/05/08 05:55:20;;;;;;;9.32;2.60;;;7.80;99.90;;;;;;5055223;28;20037;-70
2022/05/08 05:57:46;;;;;;;12.00;2.55;;;8.00;99.90;;;;;;5054203;28;20029;-70
2022/05/08 06:00:14;;;;;;;5.90;1.90;;;8.10;99.90;;;;;;5054401;28;20089;-75
2022/05/08 06:02:43;;;;;;;6.15;2.05;;;8.30;99.90;;;;;;5053608;28;20429;-78
2022/05/08 06:05:13;;;;;;;8.95;2.30;;;8.50;99.90;;;;;;5038674;28;20037;-70
2022/05/08 06:07:39;;;;;;;7.85;2.00;;;8.70;99.90;;;;;;5035963;28;20133;-70
2022/05/08 06:10:07;;;;;;;9.65;1.92;;;8.90;99.90;;;;;;5054299;28;20055;-70
2022/05/08 06:12:33;;;;;;;8.15;2.05;;;9.00;99.90;;;;;;5054205;28;20037;-70
2022/05/08 06:14:59;;;;;;;10.13;2.08;;;9.00;99.90;;;;;;5038709;28;20036;-70
2022/05/08 06:17:25;;;;;;;9.00;1.92;;;9.10;99.90;;;;;;5036768;28;20142;-70
2022/05/08 06:19:51;;;;;;;9.70;2.00;;;9.20;99.90;;;;;;5037753;28;20120;-70
2022/05/08 06:22:16;;;;;;;8.52;2.08;;;9.40;99.90;;;;;;5053968;28;20049;-70
2022/05/08 06:24:42;;;;;;;8.15;2.10;;;9.30;99.90;;;;;;5036437;28;20417;-70
2022/05/08 06:27:08;;;;;;;10.75;2.08;;;9.30;99.90;;;;;;5037128;28;20044;-70
2022/05/08 06:29:33;;;;;;;7.97;1.83;;;9.40;99.90;;;;;;5052599;28;20037;-70
2022/05/08 06:32:00;;;;;;;10.80;2.05;;;9.30;99.90;;;;;;5053965;28;20048;-70
2022/05/08 06:34:26;;;;;;;10.32;2.13;;;9.30;99.90;;;;;;5035564;28;20053;-70
2022/05/08 06:36:52;;;;;;;7.53;1.70;;;9.30;99.90;;;;;;5054000;28;20106;-70
2022/05/08 06:39:18;;;;;;;11.20;1.75;;;9.50;99.90;;;;;;5053524;28;20497;-70
2022/05/08 06:41:43;;;;;;;6.78;1.65;;;9.40;99.90;;;;;;5035232;28;20071;-69
2022/05/08 06:44:09;;;;;;;10.40;2.13;;;9.40;99.90;;;;;;5050086;28;20041;-70
2022/05/08 06:46:36;;;;;;;9.55;1.90;;;9.50;99.90;;;;;;5036122;28;20405;-70
2022/05/08 06:49:05;;;;;;;10.93;2.00;;;9.60;99.90;;;;;;5043738;28;20044;-70
2022/05/08 06:51:32;;;;;;;10.88;1.80;;;9.70;99.90;;;;;;5036997;28;20037;-70
2022/05/08 06:53:57;;;;;;;9.18;1.60;;;9.70;99.90;;;;;;5052157;28;20083;-70
2022/05/08 06:56:25;;;;;;;8.27;2.40;;;9.60;99.90;;;;;;5053276;28;20037;-70
2022/05/08 07:01:35;;;;;;;9.23;1.90;;;9.70;99.90;;;;;;5051944;28;20409;-70
2022/05/08 07:04:05;;;;;;;9.95;2.00;;;9.80;99.90;;;;;;5052977;28;20041;-70
2022/05/08 07:06:30;;;;;;;9.90;1.83;;;9.80;99.90;;;;;;5052172;28;20033;-69
2022/05/08 07:08:57;;;;;;;8.95;1.90;;;9.90;99.90;;;;;;5052621;28;20060;-70
2022/05/08 07:11:23;;;;;;;9.43;2.00;;;9.90;99.90;;;;;;5051640;28;20044;-70
2022/05/08 07:13:48;;;;;;;9.57;1.85;;;10.10;99.90;;;;;;5036636;28;20041;-70
2022/05/08 07:16:14;;;;;;;8.38;2.15;;;10.10;99.90;;;;;;5052746;28;20036;-70
2022/05/08 07:18:39;;;;;;;8.95;2.03;;;10.10;99.90;;;;;;5069663;28;20047;-70
2022/05/08 07:21:05;;;;;;;10.13;2.05;;;10.20;99.90;;;;;;5036354;28;20076;-76
2022/05/08 07:23:34;;;;;;;12.98;3.15;;;10.40;99.90;;;;;;5052497;28;20079;-76
2022/05/08 07:25:59;;;;;;;10.73;1.70;;;10.60;99.90;;;;;;5052095;28;20381;-75
2022/05/08 07:28:25;;;;;;;9.00;2.20;;;10.80;99.90;;;;;;5052854;28;20044;-70
2022/05/08 07:30:51;;;;;;;8.90;1.83;;;10.90;99.90;;;;;;5053050;28;20041;-70
2022/05/08 07:33:17;;;;;;;10.48;2.35;;;10.90;99.90;;;;;;5052445;28;20044;-70
2022/05/08 07:38:28;;;;;;;7.95;2.05;;;10.90;99.90;;;;;;5051669;28;20041;-70
2022/05/08 07:40:54;;;;;;;9.70;1.85;;;10.90;99.90;;;;;;5051909;28;20045;-70
2022/05/08 07:43:19;;;;;;;7.82;1.75;;;11.00;99.90;;;;;;5050250;28;20382;-70
2022/05/08 07:45:45;;;;;;;7.88;1.75;;;11.10;99.90;;;;;;5052212;28;20039;-70
2022/05/08 07:48:10;;;;;;;11.50;2.20;;;11.30;99.90;;;;;;5052429;28;20123;-70
2022/05/08 07:50:36;;;;;;;15.18;2.50;;;11.10;99.90;;;;;;5034142;28;20423;-69
2022/05/08 07:53:02;;;;;;;13.00;2.63;;;11.40;99.90;;;;;;5059074;28;20045;-70
2022/05/08 07:55:28;;;;;;;10.45;2.13;;;11.40;99.90;;;;;;5054479;28;20040;-70
2022/05/08 07:57:53;;;;;;;13.15;2.78;;;11.50;99.90;;;;;;5052447;28;20044;-70
2022/05/08 08:00:19;;;;;;;11.88;2.50;;;11.50;99.90;;;;;;5068595;28;20501;-70
2022/05/08 08:02:45;;;;;;;8.13;2.00;;;11.40;99.90;;;;;;5051531;28;20033;-70
2022/05/08 08:05:10;;;;;;;12.07;2.50;;;11.50;99.90;;;;;;5052380;28;20043;-70
2022/05/08 08:07:37;;;;;;;13.65;2.05;;;11.60;99.90;;;;;;5035609;28;20037;-70
2022/05/08 08:10:04;;;;;;;9.02;2.75;;;11.70;99.90;;;;;;5036308;28;20076;-70
2022/05/08 08:12:30;;;;;;;10.02;2.08;;;11.90;99.90;;;;;;5050251;28;20083;-70
2022/05/08 08:14:56;;;;;;;8.77;1.90;;;11.80;99.90;;;;;;5052160;28;20037;-70
2022/05/08 08:17:22;;;;;;;9.77;2.00;;;12.00;99.90;;;;;;5034654;28;20564;-70
2022/05/08 08:19:48;;;;;;;6.88;2.15;;;12.20;99.90;;;;;;5035270;28;20037;-69
2022/05/08 08:22:14;;;;;;;10.20;2.45;;;12.30;99.90;;;;;;5051765;28;20079;-69
2022/05/08 08:24:40;;;;;;;10.45;2.22;;;12.50;99.90;;;;;;5051611;28;20072;-70
2022/05/08 08:27:09;;;;;;;8.10;1.77;;;12.60;99.90;;;;;;5051894;28;20442;-70
2022/05/08 08:29:35;;;;;;;10.88;1.95;;;12.70;99.90;;;;;;5034818;28;20033;-69
2022/05/08 08:32:00;;;;;;;12.05;2.10;;;12.70;99.80;;;;;;5051733;28;20048;-69
2022/05/08 08:34:26;;;;;;;13.02;1.70;;;12.60;99.90;;;;;;5034222;28;20084;-70
2022/05/08 08:36:52;;;;;;;8.27;1.80;;;12.70;99.90;;;;;;5051647;28;20515;-70
2022/05/08 08:39:18;;;;;;;11.63;1.80;;;12.80;99.90;;;;;;5033871;28;20056;-70
2022/05/08 08:41:52;;;;;;;11.60;2.20;;;12.90;99.40;;;;;;5051367;28;20033;-70
2022/05/08 08:49:53;;;;;;;8.95;1.90;;;13.10;99.90;;;;;;5052225;28;20041;-70
2022/05/08 08:52:21;;;;;;;9.43;2.25;;;13.10;99.00;;;;;;5049107;28;20033;-69
2022/05/08 08:54:47;;;;;;;7.05;1.55;;;13.10;99.70;;;;;;5050096;28;20083;-70
2022/05/08 08:57:13;;;;;;;11.48;2.15;;;13.30;93.90;;;;;;5051893;28;20076;-70
2022/05/08 08:59:39;;;;;;;8.55;1.90;;;13.50;99.30;;;;;;5035589;28;20036;-70
2022/05/08 09:02:15;;;;;;;7.38;1.75;;;13.50;98.20;;;;;;5034826;28;20045;-70
2022/05/08 09:04:41;;;;;;;10.90;2.38;;;13.60;99.90;;;;;;5059024;28;20090;-70
2022/05/08 09:07:32;;;;;;;11.80;2.08;;;13.70;99.40;;;;;;5026583;28;20037;-70
2022/05/08 09:10:07;;;;;;;8.60;1.88;;;13.80;98.30;;;;;;5033567;28;20094;-70
2022/05/08 09:12:33;;;;;;;7.47;1.83;;;13.70;96.30;;;;;;5031172;28;20136;-69
2022/05/08 09:14:59;;;;;;;6.93;2.28;;;13.70;98.60;;;;;;5048200;28;20466;-70
2022/05/08 09:17:42;;;;;;;6.60;1.52;;;13.80;96.80;;;;;;5049017;28;20493;-70
2022/05/08 09:20:26;;;;;;;7.28;2.15;;;13.90;95.40;;;;;;5033721;28;20041;-70
2022/05/08 09:23:23;;;;;;;10.13;2.47;;;14.10;98.80;;;;;;5028626;28;20034;-70
2022/05/08 09:26:02;;;;;;;10.27;2.00;;;14.20;98.60;;;;;;5049461;28;20091;-70
2022/05/08 09:28:30;;;;;;;12.88;2.47;;;14.00;94.30;;;;;;5042325;28;20031;-70
2022/05/08 09:31:02;;;;;;;11.27;2.00;;;14.20;97.20;;;;;;5038507;28;20048;-70
2022/05/08 09:33:41;;;;;;;8.98;2.10;;;14.20;97.60;;;;;;5055538;28;20094;-70
2022/05/08 09:36:16;;;;;;;9.98;2.13;;;14.20;97.80;;;;;;5037126;28;20389;-70
2022/05/08 09:38:47;;;;;;;10.02;2.28;;;14.30;98.10;;;;;;5051486;28;20053;-70
2022/05/08 09:41:30;;;;;;;9.93;2.38;;;14.30;98.20;;;;;;5050023;28;20040;-71
2022/05/08 09:44:11;;;;;;;10.13;2.08;;;14.60;96.20;;;;;;5052417;28;20400;-70
2022/05/08 09:46:38;;;;;;;7.70;1.63;;;14.70;97.90;;;;;;5050831;28;20386;-70
2022/05/08 09:49:06;;;;;;;11.48;2.13;;;14.50;93.70;;;;;;5052840;28;20037;-70
2022/05/08 09:51:33;;;;;;;8.27;1.70;;;14.40;94.00;;;;;;5038217;28;20489;-70
2022/05/08 09:54:00;;;;;;;12.80;2.30;;;14.40;94.50;;;;;;5053987;28;20037;-70
2022/05/08 09:56:25;;;;;;;9.85;2.15;;;14.70;97.30;;;;;;5035289;28;20428;-70
2022/05/08 09:58:51;;;;;;;10.23;2.10;;;14.80;97.60;;;;;;5052744;28;20038;-70
2022/05/08 10:01:18;;;;;;;12.23;2.58;;;15.00;97.50;;;;;;5044837;28;20041;-70
2022/05/08 10:03:45;;;;;;;7.15;2.17;;;14.90;91.10;;;;;;5041548;28;20037;-70
2022/05/08 10:06:11;;;;;;;11.85;2.22;;;14.90;95.70;;;;;;5043759;28;20397;-70
2022/05/08 10:08:38;;;;;;;8.85;2.30;;;14.80;94.90;;;;;;5071373;28;20432;-71
2022/05/08 10:14:05;;;;;;;10.88;2.22;;;14.70;94.80;;;;;;5048147;28;20045;-71
2022/05/08 10:16:43;;;;;;;10.07;2.10;;;15.00;94.90;;;;;;5042948;28;20099;-70
2022/05/08 10:19:18;;;;;;;9.88;1.98;;;15.10;91.90;;;;;;5045651;28;20087;-71
2022/05/08 10:22:10;;;;;;;10.85;2.20;;;15.20;92.10;;;;;;5052281;28;20072;-73
2022/05/08 10:24:46;;;;;;;10.63;1.98;;;15.20;94.40;;;;;;5053683;28;20088;-71
2022/05/08 10:27:25;;;;;;;12.38;2.47;;;15.20;94.10;;;;;;5052964;28;20041;-70
2022/05/08 10:29:51;;;;;;;9.13;2.05;;;15.20;89.70;;;;;;5034787;28;20444;-71
2022/05/08 10:32:31;;;;;;;7.07;2.17;;;15.30;94.00;;;;;;5048014;28;20044;-70
2022/05/08 10:35:03;;;;;;;9.50;2.50;;;15.40;91.00;;;;;;5034543;28;20052;-71
2022/05/08 10:37:30;;;;;;;10.65;2.10;;;15.50;83.70;;;;;;5036078;28;20040;-70
2022/05/08 10:39:56;;;;;;;8.43;2.00;;;15.70;90.10;;;;;;5050557;28;20091;-70
2022/05/08 10:42:28;;;;;;;10.00;2.65;;;15.50;86.50;;;;;;5051207;28;20041;-70
2022/05/08 10:44:54;;;;;;;13.18;2.15;;;15.50;90.60;;;;;;5034952;28;20041;-70
2022/05/08 10:47:32;;;;;;;9.95;2.40;;;15.70;89.50;;;;;;5049356;28;20515;-71
2022/05/08 10:49:58;;;;;;;12.05;2.22;;;15.50;79.10;;;;;;5034534;28;20498;-70
2022/05/08 10:52:24;;;;;;;9.95;2.30;;;15.50;85.80;;;;;;5034184;28;20040;-70
2022/05/08 10:54:56;;;;;;;11.05;2.30;;;15.40;90.20;;;;;;5049824;28;20401;-70
2022/05/08 10:57:32;;;;;;;12.25;2.47;;;15.20;77.70;;;;;;5053971;28;20041;-71
2022/05/08 11:00:03;;;;;;;9.13;2.38;;;15.10;76.80;;;;;;5051128;28;20045;-70
2022/05/08 11:02:52;;;;;;;11.30;2.45;;;15.40;82.80;;;;;;5045348;28;20044;-70
2022/05/08 11:05:20;;;;;;;9.68;2.65;;;15.50;90.90;;;;;;5017219;28;20041;-70
2022/05/08 11:07:52;;;;;;;10.10;1.77;;;15.70;78.10;;;;;;5017560;28;20049;-71
2022/05/08 11:10:21;;;;;;;9.73;2.75;;;15.70;85.80;;;;;;5017453;28;20041;-71
2022/05/08 11:12:56;;;;;;;8.90;2.60;;;15.70;87.30;;;;;;5053394;28;20579;-70
2022/05/08 11:15:23;;;;;;;11.95;2.53;;;15.80;89.70;;;;;;5036426;28;20044;-70
2022/05/08 11:18:11;;;;;;;7.82;1.98;;;15.80;90.00;;;;;;5033219;28;20096;-71
2022/05/08 11:20:48;;;;;;;12.15;2.47;;;15.70;76.30;;;;;;5049585;28;20049;-71
2022/05/08 11:23:15;;;;;;;10.18;2.05;;;16.00;84.60;;;;;;5035322;28;20045;-70
2022/05/08 11:25:45;;;;;;;10.98;2.58;;;15.80;85.70;;;;;;5033259;28;20041;-71
2022/05/08 11:28:20;;;;;;;7.18;2.10;;;15.50;72.40;;;;;;5059783;28;20512;-71
2022/05/08 11:30:46;;;;;;;10.73;2.35;;;15.60;73.60;;;;;;5053211;28;20083;-71
2022/05/08 11:36:06;;;;;;;7.40;2.13;;;15.70;81.50;;;;;;5047137;28;20517;-70
2022/05/08 11:38:42;;;;;;;10.60;2.00;;;15.90;82.90;;;;;;5036421;28;20084;-71
2022/05/08 11:41:09;;;;;;;10.48;2.03;;;15.70;80.20;;;;;;5037378;28;20534;-71
2022/05/08 11:43:39;;;;;;;10.55;2.35;;;15.60;80.80;;;;;;5036245;28;20044;-71
2022/05/08 11:46:07;;;;;;;10.27;2.08;;;15.50;81.80;;;;;;5048207;28;20044;-70
2022/05/08 11:48:43;;;;;;;11.73;2.55;;;15.60;85.60;;;;;;5055733;28;20451;-71
2022/05/08 11:51:10;;;;;;;13.07;2.70;;;15.60;85.20;;;;;;5066064;28;20029;-70
2022/05/08 11:53:47;;;;;;;9.32;1.90;;;15.70;79.10;;;;;;5051449;28;20060;-70
2022/05/08 11:56:30;;;;;;;11.55;2.00;;;15.70;74.80;;;;;;5035734;28;20036;-71
2022/05/08 11:58:57;;;;;;;11.93;2.33;;;15.50;69.90;;;;;;5035989;28;20129;-71
2022/05/08 12:01:25;;;;;;;10.68;2.08;;;15.70;79.50;;;;;;5036200;28;20071;-70
2022/05/08 12:03:50;;;;;;;9.55;2.60;;;15.60;78.90;;;;;;5052371;28;20049;-71
2022/05/08 12:06:16;;;;;;;15.68;2.60;;;15.60;71.90;;;;;;5052799;28;20047;-70
2022/05/08 12:08:42;;;;;;;8.40;2.00;;;15.50;71.70;;;;;;5052357;28;20036;-71
2022/05/08 12:11:07;;;;;;;9.52;2.28;;;15.60;79.70;;;;;;5052218;28;20067;-71
2022/05/08 12:14:19;;;;;;;7.82;1.88;;;15.40;68.00;;;;;;5052089;28;20095;-78
2022/05/08 12:17:00;;;;;;;7.90;1.93;;;15.50;80.90;;;;;;5037128;28;20401;-79
2022/05/08 12:19:26;;;;;;;10.95;2.40;;;15.50;84.50;;;;;;5027540;28;20043;-79
2022/05/08 12:21:51;;;;;;;8.88;2.00;;;15.50;78.90;;;;;;5038725;28;20120;-71
2022/05/08 12:24:17;;;;;;;10.13;1.83;;;15.60;75.40;;;;;;5034199;28;20063;-71
2022/05/08 12:26:44;;;;;;;8.20;2.50;;;15.60;77.20;;;;;;5033251;28;20044;-71
2022/05/08 12:29:22;;;;;;;9.55;2.50;;;15.70;72.90;;;;;;5032547;28;20072;-71
2022/05/08 12:31:51;;;;;;;8.55;2.25;;;15.70;72.30;;;;;;5050961;28;20037;-72
2022/05/08 12:34:21;;;;;;;12.05;1.90;;;15.70;72.10;;;;;;5051242;28;20393;-72
2022/05/08 12:36:48;;;;;;;9.10;1.95;;;15.70;78.80;;;;;;5035308;28;20102;-72
2022/05/08 12:39:15;;;;;;;10.48;2.10;;;15.70;76.30;;;;;;5035788;28;20044;-72
2022/05/08 12:41:40;;;;;;;11.30;2.40;;;15.80;73.10;;;;;;5044215;28;20051;-72
2022/05/08 12:44:07;;;;;;;6.90;2.10;;;15.70;70.70;;;;;;5050566;28;20584;-71
2022/05/08 12:46:34;;;;;;;7.03;1.70;;;15.70;77.20;;;;;;5031968;28;20033;-72
2022/05/08 12:49:02;;;;;;;9.93;2.03;;;16.00;69.50;;;;;;5033939;28;20052;-72
2022/05/08 12:51:37;;;;;;;7.72;1.98;;;15.90;70.10;;;;;;5035342;28;20032;-71
2022/05/08 12:54:03;;;;;;;8.65;2.00;;;15.60;68.10;;;;;;5050872;28;20447;-71
2022/05/08 12:56:32;;;;;;;11.40;2.45;;;15.40;67.50;;;;;;5051506;28;20036;-72
2022/05/08 13:01:46;;;;;;;7.30;2.10;;;15.60;72.90;;;;;;5051180;28;20052;-71
2022/05/08 13:04:12;;;;;;;8.68;2.28;;;15.40;72.40;;;;;;5034057;28;20481;-71
2022/05/08 13:06:38;;;;;;;6.10;1.60;;;15.40;67.30;;;;;;5051437;28;20167;-71
2022/05/08 13:09:06;;;;;;;8.38;2.00;;;15.60;70.00;;;;;;5035093;28;20094;-71
2022/05/08 13:11:33;;;;;;;10.57;2.17;;;15.60;68.40;;;;;;5050649;28;20029;-72
2022/05/08 13:13:59;;;;;;;10.13;2.25;;;15.60;72.90;;;;;;5034747;28;20101;-71
2022/05/08 13:16:25;;;;;;;6.55;1.85;;;15.40;69.40;;;;;;5034346;28;20043;-72
2022/05/08 13:18:51;;;;;;;10.30;1.95;;;15.50;70.60;;;;;;5051313;28;20127;-71